sensor_id;sensor_type;location;lat;lon;timestamp;P1;durP1;ratioP1;P2;durP2;ratioP2
68993;SDS011;56054;50.968;5.816;2023-11-21T00:00:06;26.97;;;13.83;;
68993;SDS011;56054;50.968;5.816;2023-11-21T00:03:14;29.73;;;13.47;;
68993;SDS011;56054;50.968;5.816;2023-11-21T00:06:21;24.80;;;14.63;;
68993;SDS011;56054;50.968;5.816;2023-11-21T00:09:28;30.20;;;15.27;;
68993;SDS011;56054;50.968;5.816;2023-11-21T00:12:35;30.90;;;15.63;;
68993;SDS011;56054;50.968;5.816;2023-11-21T00:15:42;28.03;;;14.17;;
68993;SDS011;56054;50.968;5.816;2023-11-21T00:18:49;28.27;;;14.70;;
68993;SDS011;56054;50.968;5.816;2023-11-21T00:21:56;29.20;;;14.87;;
68993;SDS011;56054;50.968;5.816;2023-11-21T00:25:03;36.10;;;16.80;;
68993;SDS011;56054;50.968;5.816;2023-11-21T00:28:10;30.37;;;14.73;;
68993;SDS011;56054;50.968;5.816;2023-11-21T00:31:17;33.40;;;16.97;;
68993;SDS011;56054;50.968;5.816;2023-11-21T00:34:24;37.53;;;16.57;;
68993;SDS011;56054;50.968;5.816;2023-11-21T00:37:37;29.93;;;15.33;;
68993;SDS011;56054;50.968;5.816;2023-11-21T00:40:45;26.93;;;14.47;;
68993;SDS011;56054;50.968;5.816;2023-11-21T00:43:52;26.17;;;14.10;;
68993;SDS011;56054;50.968;5.816;2023-11-21T00:46:59;28.33;;;15.23;;
68993;SDS011;56054;50.968;5.816;2023-11-21T00:50:06;25.13;;;13.37;;
68993;SDS011;56054;50.968;5.816;2023-11-21T00:53:13;31.90;;;14.17;;
68993;SDS011;56054;50.968;5.816;2023-11-21T00:56:20;29.10;;;14.73;;
68993;SDS011;56054;50.968;5.816;2023-11-21T00:59:27;27.30;;;14.37;;
68993;SDS011;56054;50.968;5.816;2023-11-21T01:02:34;29.80;;;15.00;;
68993;SDS011;56054;50.968;5.816;2023-11-21T01:05:41;25.87;;;13.77;;
68993;SDS011;56054;50.968;5.816;2023-11-21T01:08:55;27.17;;;13.80;;
68993;SDS011;56054;50.968;5.816;2023-11-21T01:12:02;34.63;;;14.93;;
68993;SDS011;56054;50.968;5.816;2023-11-21T01:15:09;25.63;;;15.40;;
68993;SDS011;56054;50.968;5.816;2023-11-21T01:18:16;32.60;;;15.47;;
68993;SDS011;56054;50.968;5.816;2023-11-21T01:21:23;37.93;;;15.93;;
68993;SDS011;56054;50.968;5.816;2023-11-21T01:24:31;36.37;;;16.77;;
68993;SDS011;56054;50.968;5.816;2023-11-21T01:27:38;33.83;;;16.97;;
68993;SDS011;56054;50.968;5.816;2023-11-21T01:30:45;35.77;;;16.47;;
68993;SDS011;56054;50.968;5.816;2023-11-21T01:33:53;38.07;;;16.93;;
68993;SDS011;56054;50.968;5.816;2023-11-21T01:37:00;33.47;;;16.17;;
68993;SDS011;56054;50.968;5.816;2023-11-21T01:40:07;31.40;;;16.10;;
68993;SDS011;56054;50.968;5.816;2023-11-21T01:43:14;38.90;;;16.73;;
68993;SDS011;56054;50.968;5.816;2023-11-21T01:46:21;30.57;;;16.17;;
68993;SDS011;56054;50.968;5.816;2023-11-21T01:49:31;31.20;;;15.47;;
68993;SDS011;56054;50.968;5.816;2023-11-21T01:52:40;29.40;;;13.53;;
68993;SDS011;56054;50.968;5.816;2023-11-21T01:55:47;24.60;;;12.53;;
68993;SDS011;56054;50.968;5.816;2023-11-21T01:58:54;26.33;;;13.07;;
68993;SDS011;56054;50.968;5.816;2023-11-21T02:02:01;25.57;;;12.17;;
68993;SDS011;56054;50.968;5.816;2023-11-21T02:05:10;26.20;;;13.63;;
68993;SDS011;56054;50.968;5.816;2023-11-21T02:08:18;28.70;;;13.93;;
68993;SDS011;56054;50.968;5.816;2023-11-21T02:11:25;33.93;;;13.70;;
68993;SDS011;56054;50.968;5.816;2023-11-21T02:14:33;25.93;;;13.70;;
68993;SDS011;56054;50.968;5.816;2023-11-21T02:17:43;24.23;;;13.63;;
68993;SDS011;56054;50.968;5.816;2023-11-21T02:20:50;31.03;;;14.43;;
68993;SDS011;56054;50.968;5.816;2023-11-21T02:23:57;28.47;;;13.90;;
68993;SDS011;56054;50.968;5.816;2023-11-21T02:27:04;22.73;;;13.27;;
68993;SDS011;56054;50.968;5.816;2023-11-21T02:30:11;25.57;;;14.10;;
68993;SDS011;56054;50.968;5.816;2023-11-21T02:33:18;27.77;;;13.47;;
68993;SDS011;56054;50.968;5.816;2023-11-21T02:36:25;27.93;;;14.20;;
68993;SDS011;56054;50.968;5.816;2023-11-21T02:39:32;29.23;;;13.33;;
68993;SDS011;56054;50.968;5.816;2023-11-21T02:42:40;26.20;;;12.83;;
68993;SDS011;56054;50.968;5.816;2023-11-21T02:45:47;23.03;;;12.20;;
68993;SDS011;56054;50.968;5.816;2023-11-21T02:48:54;28.80;;;12.93;;
68993;SDS011;56054;50.968;5.816;2023-11-21T02:52:01;29.73;;;13.73;;
68993;SDS011;56054;50.968;5.816;2023-11-21T02:55:09;30.00;;;13.30;;
68993;SDS011;56054;50.968;5.816;2023-11-21T02:58:17;30.63;;;12.77;;
68993;SDS011;56054;50.968;5.816;2023-11-21T03:01:24;26.63;;;14.10;;
68993;SDS011;56054;50.968;5.816;2023-11-21T03:04:31;28.90;;;13.93;;
68993;SDS011;56054;50.968;5.816;2023-11-21T03:07:39;30.90;;;14.60;;
68993;SDS011;56054;50.968;5.816;2023-11-21T03:10:46;30.63;;;13.87;;
68993;SDS011;56054;50.968;5.816;2023-11-21T03:13:53;35.30;;;16.20;;
68993;SDS011;56054;50.968;5.816;2023-11-21T03:17:00;37.83;;;16.17;;
68993;SDS011;56054;50.968;5.816;2023-11-21T03:20:07;31.77;;;15.10;;
68993;SDS011;56054;50.968;5.816;2023-11-21T03:23:14;33.23;;;16.07;;
68993;SDS011;56054;50.968;5.816;2023-11-21T03:26:21;35.17;;;15.77;;
68993;SDS011;56054;50.968;5.816;2023-11-21T03:29:28;36.00;;;16.30;;
68993;SDS011;56054;50.968;5.816;2023-11-21T03:32:35;32.83;;;16.10;;
68993;SDS011;56054;50.968;5.816;2023-11-21T03:35:42;40.13;;;16.50;;
68993;SDS011;56054;50.968;5.816;2023-11-21T03:38:49;35.57;;;16.17;;
68993;SDS011;56054;50.968;5.816;2023-11-21T03:41:56;40.33;;;17.13;;
68993;SDS011;56054;50.968;5.816;2023-11-21T03:45:03;34.60;;;17.67;;
68993;SDS011;56054;50.968;5.816;2023-11-21T03:48:12;36.33;;;16.10;;
68993;SDS011;56054;50.968;5.816;2023-11-21T03:51:19;37.57;;;17.23;;
68993;SDS011;56054;50.968;5.816;2023-11-21T03:54:26;39.90;;;17.90;;
68993;SDS011;56054;50.968;5.816;2023-11-21T03:57:33;38.70;;;17.93;;
68993;SDS011;56054;50.968;5.816;2023-11-21T04:00:40;40.83;;;19.20;;
68993;SDS011;56054;50.968;5.816;2023-11-21T04:03:47;36.13;;;17.97;;
68993;SDS011;56054;50.968;5.816;2023-11-21T04:06:55;37.10;;;17.87;;
68993;SDS011;56054;50.968;5.816;2023-11-21T04:10:03;39.23;;;17.10;;
68993;SDS011;56054;50.968;5.816;2023-11-21T04:13:11;36.90;;;17.83;;
68993;SDS011;56054;50.968;5.816;2023-11-21T04:16:18;49.77;;;18.93;;
68993;SDS011;56054;50.968;5.816;2023-11-21T04:19:25;46.47;;;18.57;;
68993;SDS011;56054;50.968;5.816;2023-11-21T04:22:32;47.13;;;19.00;;
68993;SDS011;56054;50.968;5.816;2023-11-21T04:25:39;47.93;;;17.00;;
68993;SDS011;56054;50.968;5.816;2023-11-21T04:28:47;44.87;;;16.97;;
68993;SDS011;56054;50.968;5.816;2023-11-21T04:31:54;41.20;;;17.23;;
68993;SDS011;56054;50.968;5.816;2023-11-21T04:35:02;44.80;;;17.70;;
68993;SDS011;56054;50.968;5.816;2023-11-21T04:38:09;41.20;;;17.00;;
68993;SDS011;56054;50.968;5.816;2023-11-21T04:41:16;39.90;;;17.37;;
68993;SDS011;56054;50.968;5.816;2023-11-21T04:44:23;42.07;;;16.00;;
68993;SDS011;56054;50.968;5.816;2023-11-21T04:47:31;39.90;;;17.33;;
68993;SDS011;56054;50.968;5.816;2023-11-21T04:50:38;44.93;;;19.23;;
68993;SDS011;56054;50.968;5.816;2023-11-21T04:53:45;48.43;;;19.77;;
68993;SDS011;56054;50.968;5.816;2023-11-21T04:56:53;56.23;;;20.87;;
68993;SDS011;56054;50.968;5.816;2023-11-21T05:00:00;61.73;;;22.20;;
68993;SDS011;56054;50.968;5.816;2023-11-21T05:03:07;62.13;;;20.87;;
68993;SDS011;56054;50.968;5.816;2023-11-21T05:06:15;63.27;;;22.03;;
68993;SDS011;56054;50.968;5.816;2023-11-21T05:09:23;48.43;;;19.67;;
68993;SDS011;56054;50.968;5.816;2023-11-21T05:12:31;62.87;;;20.33;;
68993;SDS011;56054;50.968;5.816;2023-11-21T05:15:38;53.40;;;20.93;;
68993;SDS011;56054;50.968;5.816;2023-11-21T05:18:45;54.60;;;18.53;;
68993;SDS011;56054;50.968;5.816;2023-11-21T05:21:52;49.40;;;16.73;;
68993;SDS011;56054;50.968;5.816;2023-11-21T05:24:59;58.93;;;17.37;;
68993;SDS011;56054;50.968;5.816;2023-11-21T05:28:06;58.67;;;18.10;;
68993;SDS011;56054;50.968;5.816;2023-11-21T05:31:13;60.43;;;17.40;;
68993;SDS011;56054;50.968;5.816;2023-11-21T05:34:20;56.70;;;18.60;;
68993;SDS011;56054;50.968;5.816;2023-11-21T05:37:28;59.47;;;18.10;;
68993;SDS011;56054;50.968;5.816;2023-11-21T05:40:35;60.40;;;18.87;;
68993;SDS011;56054;50.968;5.816;2023-11-21T05:43:42;55.67;;;17.37;;
68993;SDS011;56054;50.968;5.816;2023-11-21T05:46:49;67.10;;;19.77;;
68993;SDS011;56054;50.968;5.816;2023-11-21T05:49:56;69.63;;;18.73;;
68993;SDS011;56054;50.968;5.816;2023-11-21T05:53:03;57.00;;;18.83;;
68993;SDS011;56054;50.968;5.816;2023-11-21T05:56:10;44.70;;;15.53;;
68993;SDS011;56054;50.968;5.816;2023-11-21T05:59:17;57.10;;;16.80;;
68993;SDS011;56054;50.968;5.816;2023-11-21T06:02:24;50.00;;;16.33;;
68993;SDS011;56054;50.968;5.816;2023-11-21T06:05:31;48.80;;;16.70;;
68993;SDS011;56054;50.968;5.816;2023-11-21T06:08:39;56.10;;;17.97;;
68993;SDS011;56054;50.968;5.816;2023-11-21T06:11:46;62.27;;;18.90;;
68993;SDS011;56054;50.968;5.816;2023-11-21T06:14:53;56.60;;;18.87;;
68993;SDS011;56054;50.968;5.816;2023-11-21T06:18:00;53.90;;;18.10;;
68993;SDS011;56054;50.968;5.816;2023-11-21T06:21:10;57.50;;;18.83;;
68993;SDS011;56054;50.968;5.816;2023-11-21T06:24:17;61.90;;;20.17;;
68993;SDS011;56054;50.968;5.816;2023-11-21T06:27:24;58.77;;;18.33;;
68993;SDS011;56054;50.968;5.816;2023-11-21T06:30:33;51.33;;;18.17;;
68993;SDS011;56054;50.968;5.816;2023-11-21T06:33:40;60.07;;;18.33;;
68993;SDS011;56054;50.968;5.816;2023-11-21T06:36:47;50.37;;;18.43;;
68993;SDS011;56054;50.968;5.816;2023-11-21T06:39:55;60.60;;;19.13;;
68993;SDS011;56054;50.968;5.816;2023-11-21T06:43:04;67.17;;;20.13;;
68993;SDS011;56054;50.968;5.816;2023-11-21T06:46:12;68.93;;;20.60;;
68993;SDS011;56054;50.968;5.816;2023-11-21T06:49:19;72.00;;;20.10;;
68993;SDS011;56054;50.968;5.816;2023-11-21T06:52:26;66.27;;;19.23;;
68993;SDS011;56054;50.968;5.816;2023-11-21T06:55:33;66.37;;;19.60;;
68993;SDS011;56054;50.968;5.816;2023-11-21T06:58:40;76.17;;;19.73;;
68993;SDS011;56054;50.968;5.816;2023-11-21T07:01:54;76.23;;;20.70;;
68993;SDS011;56054;50.968;5.816;2023-11-21T07:05:01;68.60;;;19.37;;
68993;SDS011;56054;50.968;5.816;2023-11-21T07:08:08;72.17;;;20.30;;
68993;SDS011;56054;50.968;5.816;2023-11-21T07:11:16;72.97;;;19.77;;
68993;SDS011;56054;50.968;5.816;2023-11-21T07:14:23;62.40;;;18.37;;
68993;SDS011;56054;50.968;5.816;2023-11-21T07:17:31;61.23;;;19.03;;
68993;SDS011;56054;50.968;5.816;2023-11-21T07:20:39;68.10;;;21.03;;
68993;SDS011;56054;50.968;5.816;2023-11-21T07:23:47;59.53;;;18.60;;
68993;SDS011;56054;50.968;5.816;2023-11-21T07:26:54;63.70;;;19.47;;
68993;SDS011;56054;50.968;5.816;2023-11-21T07:30:01;62.43;;;18.87;;
68993;SDS011;56054;50.968;5.816;2023-11-21T07:33:11;61.63;;;19.13;;
68993;SDS011;56054;50.968;5.816;2023-11-21T07:36:19;64.37;;;19.07;;
68993;SDS011;56054;50.968;5.816;2023-11-21T07:39:26;57.17;;;19.07;;
68993;SDS011;56054;50.968;5.816;2023-11-21T07:42:33;60.07;;;19.10;;
68993;SDS011;56054;50.968;5.816;2023-11-21T07:45:40;59.33;;;17.53;;
68993;SDS011;56054;50.968;5.816;2023-11-21T07:48:47;56.40;;;17.63;;
68993;SDS011;56054;50.968;5.816;2023-11-21T07:51:54;57.57;;;19.17;;
68993;SDS011;56054;50.968;5.816;2023-11-21T07:55:02;60.53;;;18.07;;
68993;SDS011;56054;50.968;5.816;2023-11-21T07:58:09;53.33;;;17.63;;
68993;SDS011;56054;50.968;5.816;2023-11-21T08:01:16;64.17;;;19.03;;
68993;SDS011;56054;50.968;5.816;2023-11-21T08:04:23;50.07;;;18.00;;
68993;SDS011;56054;50.968;5.816;2023-11-21T08:07:30;64.13;;;18.60;;
68993;SDS011;56054;50.968;5.816;2023-11-21T08:10:37;57.73;;;17.63;;
68993;SDS011;56054;50.968;5.816;2023-11-21T08:13:44;63.00;;;20.23;;
68993;SDS011;56054;50.968;5.816;2023-11-21T08:16:51;63.63;;;19.27;;
68993;SDS011;56054;50.968;5.816;2023-11-21T08:19:58;64.87;;;18.80;;
68993;SDS011;56054;50.968;5.816;2023-11-21T08:23:05;68.77;;;19.33;;
68993;SDS011;56054;50.968;5.816;2023-11-21T08:26:15;70.23;;;18.97;;
68993;SDS011;56054;50.968;5.816;2023-11-21T08:29:23;65.50;;;18.77;;
68993;SDS011;56054;50.968;5.816;2023-11-21T08:32:30;65.93;;;18.53;;
68993;SDS011;56054;50.968;5.816;2023-11-21T08:35:37;62.33;;;19.83;;
68993;SDS011;56054;50.968;5.816;2023-11-21T08:38:45;74.17;;;19.67;;
68993;SDS011;56054;50.968;5.816;2023-11-21T08:41:52;75.97;;;19.23;;
68993;SDS011;56054;50.968;5.816;2023-11-21T08:44:59;57.83;;;17.53;;
68993;SDS011;56054;50.968;5.816;2023-11-21T08:48:06;66.23;;;16.83;;
68993;SDS011;56054;50.968;5.816;2023-11-21T08:51:13;54.13;;;17.03;;
68993;SDS011;56054;50.968;5.816;2023-11-21T08:54:20;56.20;;;15.53;;
68993;SDS011;56054;50.968;5.816;2023-11-21T08:57:27;56.47;;;16.87;;
68993;SDS011;56054;50.968;5.816;2023-11-21T09:00:34;62.30;;;21.23;;
68993;SDS011;56054;50.968;5.816;2023-11-21T09:03:41;67.23;;;18.27;;
68993;SDS011;56054;50.968;5.816;2023-11-21T09:06:48;66.43;;;18.57;;
68993;SDS011;56054;50.968;5.816;2023-11-21T09:09:55;56.57;;;16.40;;
68993;SDS011;56054;50.968;5.816;2023-11-21T09:13:02;52.63;;;15.93;;
68993;SDS011;56054;50.968;5.816;2023-11-21T09:16:09;56.30;;;16.23;;
68993;SDS011;56054;50.968;5.816;2023-11-21T09:19:16;55.67;;;16.30;;
68993;SDS011;56054;50.968;5.816;2023-11-21T09:22:23;50.57;;;15.47;;
68993;SDS011;56054;50.968;5.816;2023-11-21T09:25:30;54.73;;;15.63;;
68993;SDS011;56054;50.968;5.816;2023-11-21T09:28:37;53.23;;;15.47;;
68993;SDS011;56054;50.968;5.816;2023-11-21T09:31:44;62.20;;;15.57;;
68993;SDS011;56054;50.968;5.816;2023-11-21T09:34:51;61.23;;;16.30;;
68993;SDS011;56054;50.968;5.816;2023-11-21T09:37:58;52.40;;;15.83;;
68993;SDS011;56054;50.968;5.816;2023-11-21T09:41:05;44.87;;;14.83;;
68993;SDS011;56054;50.968;5.816;2023-11-21T09:44:22;51.20;;;15.90;;
68993;SDS011;56054;50.968;5.816;2023-11-21T09:47:40;54.40;;;16.17;;
68993;SDS011;56054;50.968;5.816;2023-11-21T09:50:47;55.50;;;16.13;;
68993;SDS011;56054;50.968;5.816;2023-11-21T09:53:54;57.43;;;15.53;;
68993;SDS011;56054;50.968;5.816;2023-11-21T09:57:03;46.50;;;13.77;;
68993;SDS011;56054;50.968;5.816;2023-11-21T10:00:11;60.03;;;14.47;;
68993;SDS011;56054;50.968;5.816;2023-11-21T10:03:19;57.20;;;16.80;;
68993;SDS011;56054;50.968;5.816;2023-11-21T10:06:26;59.53;;;16.50;;
68993;SDS011;56054;50.968;5.816;2023-11-21T10:09:33;61.93;;;16.73;;
68993;SDS011;56054;50.968;5.816;2023-11-21T10:12:43;58.50;;;16.30;;
68993;SDS011;56054;50.968;5.816;2023-11-21T10:15:55;63.57;;;16.63;;
68993;SDS011;56054;50.968;5.816;2023-11-21T10:19:03;55.17;;;16.10;;
68993;SDS011;56054;50.968;5.816;2023-11-21T10:22:11;63.03;;;16.90;;
68993;SDS011;56054;50.968;5.816;2023-11-21T10:25:19;55.77;;;15.47;;
68993;SDS011;56054;50.968;5.816;2023-11-21T10:28:26;61.27;;;15.87;;
68993;SDS011;56054;50.968;5.816;2023-11-21T10:31:33;50.97;;;15.27;;
68993;SDS011;56054;50.968;5.816;2023-11-21T10:34:40;50.67;;;15.37;;
68993;SDS011;56054;50.968;5.816;2023-11-21T10:37:47;54.40;;;15.57;;
68993;SDS011;56054;50.968;5.816;2023-11-21T10:41:09;51.53;;;14.80;;
68993;SDS011;56054;50.968;5.816;2023-11-21T10:44:18;47.13;;;13.93;;
68993;SDS011;56054;50.968;5.816;2023-11-21T10:47:29;54.17;;;15.90;;
68993;SDS011;56054;50.968;5.816;2023-11-21T10:50:37;51.63;;;16.20;;
68993;SDS011;56054;50.968;5.816;2023-11-21T10:53:44;72.53;;;16.83;;
68993;SDS011;56054;50.968;5.816;2023-11-21T10:56:57;55.53;;;17.00;;
68993;SDS011;56054;50.968;5.816;2023-11-21T11:00:06;58.83;;;16.57;;
68993;SDS011;56054;50.968;5.816;2023-11-21T11:03:14;56.23;;;16.57;;
68993;SDS011;56054;50.968;5.816;2023-11-21T11:06:22;51.50;;;14.93;;
68993;SDS011;56054;50.968;5.816;2023-11-21T11:09:30;63.83;;;18.60;;
68993;SDS011;56054;50.968;5.816;2023-11-21T11:12:37;63.43;;;17.43;;
68993;SDS011;56054;50.968;5.816;2023-11-21T11:15:47;56.30;;;18.60;;
68993;SDS011;56054;50.968;5.816;2023-11-21T11:18:55;61.10;;;18.77;;
68993;SDS011;56054;50.968;5.816;2023-11-21T11:26:08;60.17;;;18.27;;
68993;SDS011;56054;50.968;5.816;2023-11-21T11:29:42;67.30;;;19.97;;
68993;SDS011;56054;50.968;5.816;2023-11-21T11:33:34;62.73;;;18.73;;
68993;SDS011;56054;50.968;5.816;2023-11-21T11:36:49;63.03;;;18.70;;
68993;SDS011;56054;50.968;5.816;2023-11-21T11:40:17;71.23;;;19.43;;
68993;SDS011;56054;50.968;5.816;2023-11-21T11:43:24;57.43;;;17.27;;
68993;SDS011;56054;50.968;5.816;2023-11-21T11:46:43;65.27;;;19.87;;
68993;SDS011;56054;50.968;5.816;2023-11-21T11:49:59;61.70;;;17.60;;
68993;SDS011;56054;50.968;5.816;2023-11-21T11:53:17;69.40;;;20.17;;
68993;SDS011;56054;50.968;5.816;2023-11-21T11:56:25;64.50;;;18.53;;
68993;SDS011;56054;50.968;5.816;2023-11-21T12:00:06;58.27;;;16.90;;
68993;SDS011;56054;50.968;5.816;2023-11-21T12:03:19;57.47;;;17.73;;
68993;SDS011;56054;50.968;5.816;2023-11-21T12:06:33;60.50;;;18.07;;
68993;SDS011;56054;50.968;5.816;2023-11-21T12:09:50;60.57;;;17.53;;
68993;SDS011;56054;50.968;5.816;2023-11-21T12:12:57;69.30;;;17.83;;
68993;SDS011;56054;50.968;5.816;2023-11-21T12:16:06;52.20;;;18.27;;
68993;SDS011;56054;50.968;5.816;2023-11-21T12:19:13;62.83;;;18.13;;
68993;SDS011;56054;50.968;5.816;2023-11-21T12:22:20;59.77;;;17.27;;
68993;SDS011;56054;50.968;5.816;2023-11-21T12:25:29;51.73;;;16.77;;
68993;SDS011;56054;50.968;5.816;2023-11-21T12:28:37;49.60;;;15.87;;
68993;SDS011;56054;50.968;5.816;2023-11-21T12:31:44;48.80;;;15.70;;
68993;SDS011;56054;50.968;5.816;2023-11-21T12:34:51;48.00;;;15.27;;
68993;SDS011;56054;50.968;5.816;2023-11-21T12:37:58;46.23;;;14.90;;
68993;SDS011;56054;50.968;5.816;2023-11-21T12:41:05;53.20;;;17.17;;
68993;SDS011;56054;50.968;5.816;2023-11-21T12:44:13;61.57;;;16.57;;
68993;SDS011;56054;50.968;5.816;2023-11-21T12:47:20;49.87;;;16.27;;
68993;SDS011;56054;50.968;5.816;2023-11-21T12:50:27;46.00;;;15.27;;
68993;SDS011;56054;50.968;5.816;2023-11-21T12:53:35;56.17;;;17.37;;
68993;SDS011;56054;50.968;5.816;2023-11-21T12:56:44;45.50;;;14.13;;
68993;SDS011;56054;50.968;5.816;2023-11-21T12:59:52;43.23;;;14.83;;
68993;SDS011;56054;50.968;5.816;2023-11-21T13:03:11;47.63;;;14.93;;
68993;SDS011;56054;50.968;5.816;2023-11-21T13:06:20;48.70;;;15.57;;
68993;SDS011;56054;50.968;5.816;2023-11-21T13:09:34;49.63;;;15.60;;
68993;SDS011;56054;50.968;5.816;2023-11-21T13:12:44;36.50;;;12.83;;
68993;SDS011;56054;50.968;5.816;2023-11-21T13:15:53;39.47;;;12.73;;
68993;SDS011;56054;50.968;5.816;2023-11-21T13:19:01;33.60;;;12.30;;
68993;SDS011;56054;50.968;5.816;2023-11-21T13:22:08;29.27;;;10.67;;
68993;SDS011;56054;50.968;5.816;2023-11-21T13:25:16;36.17;;;11.33;;
68993;SDS011;56054;50.968;5.816;2023-11-21T13:28:23;36.17;;;14.87;;
68993;SDS011;56054;50.968;5.816;2023-11-21T13:31:30;24.33;;;10.40;;
68993;SDS011;56054;50.968;5.816;2023-11-21T13:34:37;30.03;;;11.73;;
68993;SDS011;56054;50.968;5.816;2023-11-21T13:37:44;33.30;;;12.33;;
68993;SDS011;56054;50.968;5.816;2023-11-21T13:40:52;32.30;;;14.43;;
68993;SDS011;56054;50.968;5.816;2023-11-21T13:43:59;36.50;;;13.33;;
68993;SDS011;56054;50.968;5.816;2023-11-21T13:47:07;37.90;;;13.27;;
68993;SDS011;56054;50.968;5.816;2023-11-21T13:50:14;33.77;;;13.73;;
68993;SDS011;56054;50.968;5.816;2023-11-21T13:53:21;37.40;;;13.50;;
68993;SDS011;56054;50.968;5.816;2023-11-21T13:56:28;35.43;;;14.10;;
68993;SDS011;56054;50.968;5.816;2023-11-21T13:59:35;37.63;;;14.53;;
68993;SDS011;56054;50.968;5.816;2023-11-21T14:02:42;42.10;;;15.53;;
68993;SDS011;56054;50.968;5.816;2023-11-21T14:05:49;37.83;;;16.13;;
68993;SDS011;56054;50.968;5.816;2023-11-21T14:08:56;42.10;;;17.73;;
68993;SDS011;56054;50.968;5.816;2023-11-21T14:12:03;47.27;;;19.67;;
68993;SDS011;56054;50.968;5.816;2023-11-21T14:15:10;56.97;;;18.43;;
68993;SDS011;56054;50.968;5.816;2023-11-21T14:18:17;50.60;;;17.90;;
68993;SDS011;56054;50.968;5.816;2023-11-21T14:21:24;50.70;;;18.07;;
68993;SDS011;56054;50.968;5.816;2023-11-21T14:24:31;44.87;;;17.27;;
68993;SDS011;56054;50.968;5.816;2023-11-21T14:27:38;42.57;;;16.87;;
68993;SDS011;56054;50.968;5.816;2023-11-21T14:30:46;42.00;;;15.77;;
68993;SDS011;56054;50.968;5.816;2023-11-21T14:33:53;41.20;;;15.97;;
68993;SDS011;56054;50.968;5.816;2023-11-21T14:37:00;43.07;;;16.83;;
68993;SDS011;56054;50.968;5.816;2023-11-21T14:40:07;42.03;;;16.17;;
68993;SDS011;56054;50.968;5.816;2023-11-21T14:43:14;32.80;;;15.00;;
68993;SDS011;56054;50.968;5.816;2023-11-21T14:46:21;36.47;;;16.17;;
68993;SDS011;56054;50.968;5.816;2023-11-21T14:49:28;38.90;;;14.07;;
68993;SDS011;56054;50.968;5.816;2023-11-21T14:52:35;42.77;;;17.50;;
68993;SDS011;56054;50.968;5.816;2023-11-21T14:55:42;37.30;;;15.23;;
68993;SDS011;56054;50.968;5.816;2023-11-21T14:58:49;33.03;;;15.17;;
68993;SDS011;56054;50.968;5.816;2023-11-21T15:01:57;35.20;;;16.10;;
68993;SDS011;56054;50.968;5.816;2023-11-21T15:05:04;36.53;;;15.30;;
68993;SDS011;56054;50.968;5.816;2023-11-21T15:08:11;33.40;;;14.33;;
68993;SDS011;56054;50.968;5.816;2023-11-21T15:11:18;33.37;;;14.83;;
68993;SDS011;56054;50.968;5.816;2023-11-21T15:14:25;35.10;;;14.87;;
68993;SDS011;56054;50.968;5.816;2023-11-21T15:17:39;37.77;;;15.77;;
68993;SDS011;56054;50.968;5.816;2023-11-21T15:20:46;38.27;;;16.73;;
68993;SDS011;56054;50.968;5.816;2023-11-21T15:23:53;33.90;;;15.17;;
68993;SDS011;56054;50.968;5.816;2023-11-21T15:27:00;26.83;;;12.73;;
68993;SDS011;56054;50.968;5.816;2023-11-21T15:30:07;32.37;;;11.87;;
68993;SDS011;56054;50.968;5.816;2023-11-21T15:33:14;27.33;;;12.53;;
68993;SDS011;56054;50.968;5.816;2023-11-21T15:36:21;25.80;;;12.17;;
68993;SDS011;56054;50.968;5.816;2023-11-21T15:39:28;24.17;;;11.40;;
68993;SDS011;56054;50.968;5.816;2023-11-21T15:42:36;26.13;;;10.97;;
68993;SDS011;56054;50.968;5.816;2023-11-21T15:45:43;26.50;;;10.97;;
68993;SDS011;56054;50.968;5.816;2023-11-21T15:48:50;24.63;;;11.43;;
68993;SDS011;56054;50.968;5.816;2023-11-21T15:51:57;22.30;;;10.23;;
68993;SDS011;56054;50.968;5.816;2023-11-21T15:55:04;22.93;;;10.50;;
68993;SDS011;56054;50.968;5.816;2023-11-21T15:58:11;20.53;;;10.00;;
68993;SDS011;56054;50.968;5.816;2023-11-21T16:01:18;19.53;;;10.17;;
68993;SDS011;56054;50.968;5.816;2023-11-21T16:04:25;19.83;;;8.87;;
68993;SDS011;56054;50.968;5.816;2023-11-21T16:07:32;16.23;;;8.70;;
68993;SDS011;56054;50.968;5.816;2023-11-21T16:10:39;16.07;;;8.10;;
68993;SDS011;56054;50.968;5.816;2023-11-21T16:13:46;21.43;;;9.13;;
68993;SDS011;56054;50.968;5.816;2023-11-21T16:16:53;15.10;;;9.23;;
68993;SDS011;56054;50.968;5.816;2023-11-21T16:20:00;15.47;;;9.27;;
68993;SDS011;56054;50.968;5.816;2023-11-21T16:23:07;15.80;;;8.87;;
68993;SDS011;56054;50.968;5.816;2023-11-21T16:26:14;26.80;;;14.77;;
68993;SDS011;56054;50.968;5.816;2023-11-21T16:29:21;31.23;;;15.00;;
68993;SDS011;56054;50.968;5.816;2023-11-21T16:32:28;19.80;;;10.57;;
68993;SDS011;56054;50.968;5.816;2023-11-21T16:35:35;22.53;;;11.07;;
68993;SDS011;56054;50.968;5.816;2023-11-21T16:38:42;21.70;;;11.37;;
68993;SDS011;56054;50.968;5.816;2023-11-21T16:41:49;18.37;;;11.00;;
68993;SDS011;56054;50.968;5.816;2023-11-21T16:44:56;19.43;;;10.93;;
68993;SDS011;56054;50.968;5.816;2023-11-21T16:48:03;25.57;;;14.73;;
68993;SDS011;56054;50.968;5.816;2023-11-21T16:51:10;23.93;;;13.30;;
68993;SDS011;56054;50.968;5.816;2023-11-21T16:54:17;21.60;;;11.83;;
68993;SDS011;56054;50.968;5.816;2023-11-21T16:57:24;17.70;;;10.27;;
68993;SDS011;56054;50.968;5.816;2023-11-21T17:00:31;22.00;;;12.57;;
68993;SDS011;56054;50.968;5.816;2023-11-21T17:03:38;24.23;;;12.73;;
68993;SDS011;56054;50.968;5.816;2023-11-21T17:06:45;22.60;;;13.17;;
68993;SDS011;56054;50.968;5.816;2023-11-21T17:09:53;24.27;;;13.13;;
68993;SDS011;56054;50.968;5.816;2023-11-21T17:13:00;27.27;;;14.23;;
68993;SDS011;56054;50.968;5.816;2023-11-21T17:16:07;29.87;;;15.13;;
68993;SDS011;56054;50.968;5.816;2023-11-21T17:19:14;31.30;;;14.40;;
68993;SDS011;56054;50.968;5.816;2023-11-21T17:22:21;27.37;;;13.67;;
68993;SDS011;56054;50.968;5.816;2023-11-21T17:25:28;26.10;;;14.00;;
68993;SDS011;56054;50.968;5.816;2023-11-21T17:28:35;26.97;;;13.37;;
68993;SDS011;56054;50.968;5.816;2023-11-21T17:31:45;26.70;;;13.63;;
68993;SDS011;56054;50.968;5.816;2023-11-21T17:34:52;27.90;;;15.13;;
68993;SDS011;56054;50.968;5.816;2023-11-21T17:37:59;29.13;;;14.60;;
68993;SDS011;56054;50.968;5.816;2023-11-21T17:41:06;30.77;;;15.10;;
68993;SDS011;56054;50.968;5.816;2023-11-21T17:44:13;31.33;;;14.50;;
68993;SDS011;56054;50.968;5.816;2023-11-21T17:47:20;27.93;;;13.27;;
68993;SDS011;56054;50.968;5.816;2023-11-21T17:50:27;23.33;;;13.00;;
68993;SDS011;56054;50.968;5.816;2023-11-21T17:53:34;28.40;;;13.47;;
68993;SDS011;56054;50.968;5.816;2023-11-21T17:56:41;29.17;;;13.57;;
68993;SDS011;56054;50.968;5.816;2023-11-21T17:59:48;39.10;;;18.33;;
68993;SDS011;56054;50.968;5.816;2023-11-21T18:02:55;30.80;;;15.17;;
68993;SDS011;56054;50.968;5.816;2023-11-21T18:06:02;95.03;;;37.77;;
68993;SDS011;56054;50.968;5.816;2023-11-21T18:09:09;59.53;;;24.80;;
68993;SDS011;56054;50.968;5.816;2023-11-21T18:12:16;69.13;;;28.67;;
68993;SDS011;56054;50.968;5.816;2023-11-21T18:15:23;31.50;;;15.57;;
68993;SDS011;56054;50.968;5.816;2023-11-21T18:18:30;31.87;;;17.07;;
68993;SDS011;56054;50.968;5.816;2023-11-21T18:21:37;25.70;;;12.80;;